createdAt,value
2022-12-05T00:03:27.661Z,15.05
2022-12-05T00:08:29.283Z,15.02
2022-12-05T00:13:30.839Z,14.05
2022-12-05T00:18:33.695Z,15.38
2022-12-05T00:23:35.253Z,13.88
2022-12-05T00:28:36.910Z,14.13
2022-12-05T00:33:39.370Z,14.93
2022-12-05T00:38:42.294Z,13.05
2022-12-05T00:43:44.759Z,12.85
2022-12-05T00:48:46.888Z,13.55
2022-12-05T00:53:49.533Z,12.93
2022-12-05T00:58:53.936Z,14.15
2022-12-05T01:03:57.785Z,12.38
2022-12-05T01:09:00.398Z,14.07
2022-12-05T01:14:02.007Z,13.70
2022-12-05T01:19:10.990Z,14.27
2022-12-05T01:24:12.596Z,14.77
2022-12-05T01:29:16.565Z,14.00
2022-12-05T01:34:19.125Z,14.35
2022-12-05T01:39:20.839Z,14.77
2022-12-05T01:44:22.384Z,14.93
2022-12-05T01:49:31.933Z,15.25
2022-12-05T01:54:36.628Z,15.68
2022-12-05T01:59:48.483Z,14.18
2022-12-05T02:05:03.451Z,13.45
2022-12-05T02:10:09.276Z,14.85
2022-12-05T02:15:30.608Z,15.10
2022-12-05T02:21:07.982Z,13.73
2022-12-05T02:26:34.155Z,14.43
2022-12-05T02:31:52.542Z,14.73
2022-12-05T02:37:12.120Z,15.55
2022-12-05T02:42:38.919Z,15.05
2022-12-05T02:47:45.795Z,17.70
2022-12-05T02:52:49.730Z,19.60
2022-12-05T02:57:56.780Z,16.73
2022-12-05T03:03:00.579Z,15.90
2022-12-05T03:08:04.430Z,15.77
2022-12-05T03:13:12.758Z,14.50
2022-12-05T03:18:14.244Z,14.68
2022-12-05T03:23:20.917Z,13.88
2022-12-05T03:28:35.237Z,15.75
2022-12-05T03:33:42.663Z,14.85
2022-12-05T03:39:08.087Z,14.35
2022-12-05T03:44:18.306Z,14.05
2022-12-05T03:49:34.354Z,13.57
2022-12-05T03:54:42.242Z,14.07
2022-12-05T03:59:53.650Z,14.70
2022-12-05T04:05:04.163Z,15.05
2022-12-05T04:10:20.452Z,15.00
2022-12-05T04:15:54.488Z,14.88
2022-12-05T04:21:17.290Z,14.45
2022-12-05T04:26:31.455Z,14.02
2022-12-05T04:31:41.348Z,14.82
2022-12-05T04:37:04.609Z,13.93
2022-12-05T04:42:12.203Z,15.45
2022-12-05T04:47:17.019Z,14.50
2022-12-05T04:52:19.130Z,14.10
2022-12-05T04:57:34.097Z,14.90
2022-12-05T05:03:15.115Z,13.48
2022-12-05T05:08:23.808Z,13.57
2022-12-05T05:13:25.477Z,13.32
2022-12-05T05:18:27.139Z,12.93
2022-12-05T05:23:28.722Z,13.93
2022-12-05T05:28:30.294Z,14.57
2022-12-05T05:33:33.084Z,12.93
2022-12-05T05:38:42.988Z,13.35
2022-12-05T05:43:45.911Z,14.40
2022-12-05T05:48:48.537Z,13.40
2022-12-05T05:53:50.084Z,14.00
2022-12-05T05:58:56.671Z,13.98
2022-12-05T06:03:59.201Z,13.98
2022-12-05T06:09:01.004Z,12.80
2022-12-05T06:14:02.804Z,12.93
2022-12-05T06:19:04.563Z,13.82
2022-12-05T06:24:06.616Z,13.65
2022-12-05T06:29:08.170Z,12.18
2022-12-05T06:34:09.751Z,11.23
2022-12-05T06:39:11.327Z,11.15
2022-12-05T06:44:12.892Z,11.05
2022-12-05T06:49:14.965Z,11.57
2022-12-05T06:54:16.591Z,12.07
2022-12-05T06:59:18.237Z,11.80
2022-12-05T07:04:24.496Z,11.95
2022-12-05T07:09:45.360Z,12.05
2022-12-05T07:14:49.315Z,11.43
2022-12-05T07:19:53.064Z,12.98
2022-12-05T07:24:54.674Z,11.45
2022-12-05T07:29:59.887Z,11.25
2022-12-05T07:35:01.805Z,10.82
2022-12-05T07:40:03.646Z,21.02
2022-12-05T07:45:05.827Z,13.27
2022-12-05T07:50:11.359Z,12.10
2022-12-05T07:55:12.945Z,14.55
2022-12-05T08:00:15.393Z,14.43
2022-12-05T08:05:17.094Z,15.95
2022-12-05T08:10:18.744Z,13.63
2022-12-05T08:15:20.365Z,13.30
2022-12-05T08:20:22.159Z,12.88
2022-12-05T08:25:23.936Z,12.85
2022-12-05T08:30:25.561Z,14.00
2022-12-05T08:35:27.218Z,14.32
2022-12-05T08:40:28.796Z,14.10
2022-12-05T08:45:30.515Z,14.98
2022-12-05T08:50:34.464Z,14.25
2022-12-05T08:55:36.653Z,13.77
2022-12-05T09:00:39.172Z,17.17
2022-12-05T09:05:41.259Z,16.75
2022-12-05T09:10:42.832Z,15.15
2022-12-05T09:15:44.621Z,15.73
2022-12-05T09:20:47.304Z,13.20
2022-12-05T09:25:58.086Z,13.48
2022-12-05T09:31:02.059Z,14.15
2022-12-05T09:36:09.329Z,13.68
2022-12-05T09:41:45.566Z,14.65
2022-12-05T09:47:04.456Z,15.18
2022-12-05T09:52:27.248Z,15.97
2022-12-05T09:57:39.735Z,14.35
2022-12-05T10:02:53.445Z,13.73
2022-12-05T10:08:18.000Z,16.15
2022-12-05T10:13:37.772Z,16.02
2022-12-05T10:18:54.175Z,17.25
2022-12-05T10:23:59.645Z,15.18
2022-12-05T10:29:19.081Z,14.40
2022-12-05T10:34:37.289Z,17.73
2022-12-05T10:39:39.088Z,14.80
2022-12-05T10:44:40.910Z,18.17
2022-12-05T10:49:42.894Z,13.68
2022-12-05T10:54:54.845Z,13.90
2022-12-05T10:59:57.562Z,13.70
2022-12-05T11:05:04.453Z,12.85
2022-12-05T11:10:26.322Z,13.25
2022-12-05T11:15:30.825Z,12.43
2022-12-05T11:20:35.259Z,14.00
2022-12-05T11:25:37.624Z,12.60
2022-12-05T11:30:39.260Z,11.60
2022-12-05T11:35:44.233Z,12.15
2022-12-05T11:40:59.531Z,11.43
2022-12-05T11:46:38.798Z,10.88
2022-12-05T11:51:48.018Z,10.73
2022-12-05T11:56:54.890Z,10.67
2022-12-05T12:02:21.318Z,10.98
2022-12-05T12:07:48.879Z,11.18
2022-12-05T12:13:01.430Z,10.35
2022-12-05T12:18:21.641Z,12.02
2022-12-05T12:23:30.812Z,10.52
2022-12-05T12:28:57.245Z,11.37
2022-12-05T12:34:29.615Z,10.15
2022-12-05T12:39:31.422Z,8.88
2022-12-05T12:45:10.733Z,7.72
2022-12-05T12:50:21.360Z,6.38
2022-12-05T12:55:50.952Z,9.82
2022-12-05T13:01:06.330Z,9.23
2022-12-05T13:06:21.557Z,10.73
2022-12-05T13:11:24.027Z,9.65
2022-12-05T13:16:33.794Z,9.45
2022-12-05T13:21:35.755Z,9.07
2022-12-05T13:26:48.438Z,10.15
2022-12-05T13:31:50.275Z,9.95
2022-12-05T13:37:10.622Z,7.90
2022-12-05T13:42:24.343Z,7.10
2022-12-05T13:47:35.152Z,7.13
2022-12-05T13:52:59.397Z,7.55
2022-12-05T13:58:03.860Z,7.20
2022-12-05T14:03:34.987Z,7.60
2022-12-05T14:08:39.495Z,8.30
2022-12-05T14:13:43.584Z,9.18
2022-12-05T14:19:03.087Z,8.85
2022-12-05T14:24:13.252Z,8.60
2022-12-05T14:29:41.141Z,8.20
2022-12-05T14:34:56.425Z,6.80
2022-12-05T14:40:00.922Z,6.35
2022-12-05T14:45:20.252Z,5.18
2022-12-05T14:50:34.809Z,4.70
2022-12-05T14:55:36.656Z,4.10
2022-12-05T15:00:38.373Z,4.30
2022-12-05T15:05:40.111Z,4.45
2022-12-05T15:10:43.480Z,4.15
2022-12-05T15:15:52.149Z,4.20
2022-12-05T15:21:08.986Z,4.30
2022-12-05T15:31:47.655Z,3.40
2022-12-05T15:37:04.175Z,3.88
2022-12-05T15:42:15.272Z,4.50
2022-12-05T15:47:26.054Z,4.03
2022-12-05T15:52:47.416Z,5.30
2022-12-05T15:57:57.872Z,5.15
2022-12-05T16:03:08.480Z,5.03
2022-12-05T16:08:10.269Z,5.95
2022-12-05T16:13:15.372Z,6.07
2022-12-05T16:18:27.758Z,6.97
2022-12-05T16:23:33.190Z,6.28
2022-12-05T16:28:34.815Z,5.10
2022-12-05T16:33:41.798Z,6.78
2022-12-05T16:38:46.860Z,6.15
2022-12-05T16:43:49.184Z,6.15
2022-12-05T16:49:28.366Z,5.65
2022-12-05T16:54:30.122Z,5.23
2022-12-05T16:59:39.332Z,4.80
2022-12-05T17:04:41.404Z,5.03
2022-12-05T17:09:42.990Z,4.95
2022-12-05T17:14:45.750Z,5.53
2022-12-05T17:19:47.982Z,5.35
2022-12-05T17:24:49.547Z,4.90
2022-12-05T17:29:51.084Z,5.82
2022-12-05T17:34:52.622Z,6.50
2022-12-05T17:39:54.175Z,6.05
2022-12-05T17:44:55.826Z,5.97
2022-12-05T17:49:57.832Z,5.97
2022-12-05T17:55:00.044Z,6.53
2022-12-05T18:00:02.028Z,6.75
2022-12-05T18:05:04.276Z,6.38
2022-12-05T18:10:12.698Z,6.47
2022-12-05T18:15:15.615Z,6.20
2022-12-05T18:20:17.393Z,6.20
2022-12-05T18:25:19.055Z,5.55
2022-12-05T18:30:20.601Z,6.88
2022-12-05T18:35:40.238Z,6.97
2022-12-05T18:40:41.810Z,8.10
2022-12-05T18:45:43.398Z,7.50
2022-12-05T18:50:44.964Z,7.53
2022-12-05T18:56:05.330Z,7.80
2022-12-05T19:01:11.581Z,7.60
2022-12-05T19:06:18.975Z,8.48
2022-12-05T19:11:20.700Z,11.52
2022-12-05T19:16:22.353Z,9.55
2022-12-05T19:21:25.263Z,7.70
2022-12-05T19:26:27.732Z,8.95
2022-12-05T19:31:30.250Z,8.65
2022-12-05T19:36:37.440Z,9.45
2022-12-05T19:41:39.088Z,9.40
2022-12-05T19:46:43.679Z,9.20
2022-12-05T19:51:45.936Z,9.18
2022-12-05T19:56:47.684Z,9.15
2022-12-05T20:01:49.243Z,9.15
2022-12-05T20:06:50.863Z,7.93
2022-12-05T20:11:55.596Z,8.07
2022-12-05T20:16:57.515Z,7.97
2022-12-05T20:21:59.159Z,7.93
2022-12-05T20:27:01.678Z,6.85
2022-12-05T20:32:03.398Z,7.57
2022-12-05T20:37:04.970Z,7.65
2022-12-05T20:42:06.668Z,7.05
2022-12-05T20:47:08.269Z,7.97
2022-12-05T20:52:09.839Z,7.40
2022-12-05T20:57:11.416Z,8.45
2022-12-05T21:02:12.989Z,8.35
2022-12-05T21:07:14.548Z,7.50
2022-12-05T21:12:16.084Z,8.63
2022-12-05T21:17:17.606Z,7.50
2022-12-05T21:22:19.143Z,8.13
2022-12-05T21:27:20.780Z,7.00
2022-12-05T21:32:22.348Z,6.43
2022-12-05T21:37:23.931Z,6.47
2022-12-05T21:42:25.537Z,6.97
2022-12-05T21:47:30.011Z,6.22
2022-12-05T21:52:39.276Z,6.80
2022-12-05T21:57:40.882Z,6.75
2022-12-05T22:02:42.495Z,6.18
2022-12-05T22:07:44.182Z,6.20
2022-12-05T22:12:46.920Z,5.63
2022-12-05T22:17:48.468Z,5.45
2022-12-05T22:22:50.399Z,5.80
2022-12-05T22:27:51.940Z,5.03
2022-12-05T22:32:53.801Z,5.43
2022-12-05T22:37:55.405Z,5.70
2022-12-05T22:42:56.979Z,6.25
2022-12-05T22:47:58.537Z,5.40
2022-12-05T22:53:00.254Z,6.10
2022-12-05T22:58:01.853Z,6.10
2022-12-05T23:03:03.975Z,8.10
2022-12-05T23:08:05.842Z,6.95
2022-12-05T23:13:07.980Z,6.40
2022-12-05T23:18:09.596Z,6.20
2022-12-05T23:23:11.196Z,7.82
2022-12-05T23:28:12.800Z,7.75
2022-12-05T23:33:14.387Z,6.35
2022-12-05T23:38:16.154Z,6.45
2022-12-05T23:43:18.272Z,7.28
2022-12-05T23:48:19.962Z,7.88
2022-12-05T23:53:21.547Z,6.40
2022-12-05T23:58:23.175Z,6.93
